Time;durP1;ratioP1;P1;durP2;ratioP2;P2;SDS_P1;SDS_P2;PMS_P1;PMS_P2;Temp;Humidity;BMP_temperature;BMP_pressure;BME280_temperature;BME280_humidity;BME280_pressure;Samples;Min_cycle;Max_cycle;Signal;HPM_P1;HPM_P2
2020/12/13 00:01:17;;;;;;;0.50;0.50;;;2.40;99.90;;;;;;5034012;28;20609;-87
2020/12/13 00:03:46;;;;;;;0.50;0.50;;;2.40;99.90;;;;;;5033582;28;20227;-86
2020/12/13 00:06:17;;;;;;;0.50;0.50;;;2.40;99.90;;;;;;5034075;28;20205;-86
2020/12/13 00:08:43;;;;;;;0.50;0.50;;;2.40;99.90;;;;;;5034127;28;20209;-87
2020/12/13 00:11:09;;;;;;;0.50;0.50;;;2.40;99.90;;;;;;5033513;28;20233;-86
2020/12/13 00:13:38;;;;;;;0.50;0.50;;;2.40;99.90;;;;;;5033937;28;20216;-86
2020/12/13 00:16:15;;;;;;;0.50;0.50;;;2.70;99.90;;;;;;5033857;28;20204;-87
2020/12/13 00:18:43;;;;;;;0.50;0.50;;;2.50;99.90;;;;;;5032775;28;20205;-87
2020/12/13 00:21:43;;;;;;;0.50;0.50;;;2.60;99.90;;;;;;5033589;28;20221;-87
2020/12/13 00:24:13;;;;;;;0.50;0.50;;;2.40;99.90;;;;;;5032625;28;20235;-87
2020/12/13 00:26:44;;;;;;;0.50;0.50;;;2.40;99.90;;;;;;5034211;28;20579;-88
2020/12/13 00:29:10;;;;;;;0.50;0.50;;;2.40;99.90;;;;;;5046171;28;20208;-88
2020/12/13 00:31:37;;;;;;;0.50;0.50;;;2.40;99.90;;;;;;5052756;28;20224;-87
2020/12/13 00:34:04;;;;;;;0.50;0.50;;;2.40;99.90;;;;;;5050818;28;20192;-88
2020/12/13 00:36:33;;;;;;;0.50;0.50;;;2.40;99.90;;;;;;5053495;28;20200;-88
2020/12/13 00:39:00;;;;;;;0.50;0.50;;;2.40;99.90;;;;;;5053461;28;20295;-88
2020/12/13 00:41:28;;;;;;;0.50;0.50;;;2.40;99.90;;;;;;5053470;28;20238;-87
2020/12/13 00:43:58;;;;;;;0.50;0.50;;;2.40;99.90;;;;;;5053187;28;20213;-88
2020/12/13 00:46:24;;;;;;;0.50;0.50;;;2.40;99.90;;;;;;5052769;28;20204;-88
2020/12/13 00:48:50;;;;;;;0.50;0.50;;;2.30;99.90;;;;;;5052731;28;20228;-88
2020/12/13 00:51:23;;;;;;;0.50;0.50;;;2.30;99.90;;;;;;5053003;28;20223;-88
2020/12/13 00:53:49;;;;;;;0.50;0.50;;;2.30;99.90;;;;;;5053140;28;20216;-87
2020/12/13 00:56:15;;;;;;;0.50;0.50;;;2.40;99.90;;;;;;5052816;28;20219;-88
2020/12/13 00:58:44;;;;;;;0.50;0.50;;;2.30;99.90;;;;;;5053275;28;20208;-88
2020/12/13 01:01:11;;;;;;;0.50;0.50;;;2.30;99.90;;;;;;5046170;28;20204;-88
2020/12/13 01:03:40;;;;;;;0.50;0.50;;;2.30;99.90;;;;;;5033206;28;20201;-88
2020/12/13 01:06:06;;;;;;;0.50;0.50;;;2.30;99.90;;;;;;5040108;28;20208;-88
2020/12/13 01:08:33;;;;;;;0.50;0.50;;;2.30;99.90;;;;;;5033449;28;20209;-87
2020/12/13 01:11:00;;;;;;;0.50;0.50;;;2.30;99.90;;;;;;5040629;28;20307;-88
2020/12/13 01:13:26;;;;;;;0.50;0.50;;;2.30;99.90;;;;;;5043650;28;20192;-88
2020/12/13 01:15:53;;;;;;;0.50;0.50;;;2.40;99.90;;;;;;5043705;28;20582;-89
2020/12/13 01:18:20;;;;;;;0.50;0.50;;;2.30;99.90;;;;;;5042438;28;20247;-88
2020/12/13 01:20:46;;;;;;;0.50;0.50;;;2.30;99.90;;;;;;5042493;28;20213;-87
2020/12/13 01:23:13;;;;;;;0.50;0.50;;;2.30;99.90;;;;;;5044185;28;20216;-88
2020/12/13 01:28:29;;;;;;;0.50;0.50;;;2.40;99.90;;;;;;5040862;28;20279;-88
2020/12/13 01:30:55;;;;;;;0.50;0.50;;;2.30;99.90;;;;;;5037008;28;20236;-89
2020/12/13 01:33:21;;;;;;;0.50;0.50;;;2.70;99.90;;;;;;5037969;28;20628;-89
2020/12/13 01:35:54;;;;;;;0.50;0.50;;;2.30;99.90;;;;;;5043434;28;20205;-88
2020/12/13 01:38:23;;;;;;;0.50;0.50;;;2.30;99.90;;;;;;5043821;28;20199;-89
2020/12/13 01:41:16;;;;;;;0.50;0.50;;;2.30;99.90;;;;;;5043829;28;20208;-89
2020/12/13 01:43:56;;;;;;;0.50;0.50;;;2.30;99.90;;;;;;5041720;28;20283;-89
2020/12/13 01:46:24;;;;;;;0.50;0.50;;;2.30;99.90;;;;;;5043695;28;20192;-89
2020/12/13 01:48:57;;;;;;;0.50;0.50;;;2.30;99.90;;;;;;5042824;28;20228;-90
2020/12/13 01:51:32;;;;;;;0.50;0.50;;;2.50;99.90;;;;;;5042368;28;20316;-90
2020/12/13 01:54:01;;;;;;;0.50;0.50;;;2.30;99.90;;;;;;5043566;28;20203;-89
2020/12/13 01:56:36;;;;;;;0.50;0.50;;;2.10;99.90;;;;;;5042930;28;20205;-89
2020/12/13 01:59:03;;;;;;;0.50;0.50;;;2.30;99.90;;;;;;5043034;28;20431;-89
2020/12/13 02:01:34;;;;;;;0.50;0.50;;;2.20;99.90;;;;;;5042923;28;20205;-89
2020/12/13 02:04:03;;;;;;;0.50;0.50;;;2.30;99.90;;;;;;5042154;28;20197;-89
2020/12/13 02:06:32;;;;;;;0.50;0.50;;;2.30;99.90;;;;;;5041256;28;20209;-89
2020/12/13 02:08:58;;;;;;;0.50;0.50;;;3.00;99.90;;;;;;5042496;28;20740;-89
2020/12/13 02:11:24;;;;;;;0.50;0.50;;;2.30;99.90;;;;;;5042153;28;20220;-88
2020/12/13 02:13:54;;;;;;;0.50;0.50;;;2.30;99.90;;;;;;5040421;28;20193;-88
2020/12/13 02:16:20;;;;;;;0.50;0.50;;;2.20;99.90;;;;;;5041608;28;20204;-89
2020/12/13 02:18:47;;;;;;;0.50;0.50;;;2.30;99.90;;;;;;5042296;28;20212;-89
2020/12/13 02:21:19;;;;;;;0.50;0.50;;;2.30;99.90;;;;;;5039764;28;20224;-89
2020/12/13 02:23:46;;;;;;;0.50;0.50;;;2.30;99.90;;;;;;5040428;28;20211;-88
2020/12/13 02:26:14;;;;;;;0.50;0.50;;;2.30;99.90;;;;;;5041959;28;20200;-87
2020/12/13 02:28:41;;;;;;;0.50;0.50;;;2.30;99.90;;;;;;5041840;28;20250;-88
2020/12/13 02:31:08;;;;;;;0.50;0.50;;;2.30;99.90;;;;;;5040021;28;20216;-87
2020/12/13 02:33:37;;;;;;;0.50;0.50;;;2.30;99.90;;;;;;5040293;28;20569;-87
2020/12/13 02:36:06;;;;;;;0.50;0.50;;;1.90;99.90;;;;;;5040355;28;20200;-88
2020/12/13 02:38:32;;;;;;;0.50;0.50;;;2.30;99.90;;;;;;5038893;28;20204;-88
2020/12/13 02:41:03;;;;;;;0.50;0.50;;;2.30;99.90;;;;;;5037834;28;20206;-88
2020/12/13 02:43:29;;;;;;;0.50;0.50;;;2.30;99.90;;;;;;5041943;28;20200;-87
2020/12/13 02:45:55;;;;;;;0.50;0.50;;;2.20;99.90;;;;;;5040880;28;20208;-88
2020/12/13 02:48:22;;;;;;;0.50;0.50;;;2.20;99.90;;;;;;5041453;28;20220;-88
2020/12/13 02:50:48;;;;;;;0.50;0.50;;;2.30;99.90;;;;;;5042143;28;20213;-88
2020/12/13 02:53:14;;;;;;;0.50;0.50;;;2.20;99.90;;;;;;5040581;28;20228;-88
2020/12/13 02:55:41;;;;;;;0.50;0.50;;;2.20;99.90;;;;;;5041746;28;20266;-88
2020/12/13 02:58:08;;;;;;;0.50;0.50;;;2.20;99.90;;;;;;5041190;28;20287;-88
2020/12/13 03:00:34;;;;;;;0.50;0.50;;;2.20;99.90;;;;;;5039954;28;20193;-88
2020/12/13 03:03:02;;;;;;;0.50;0.50;;;2.20;99.90;;;;;;5041404;28;20291;-89
2020/12/13 03:05:31;;;;;;;0.50;0.50;;;3.10;99.90;;;;;;5042272;28;20197;-88
2020/12/13 03:07:58;;;;;;;0.50;0.50;;;2.30;99.90;;;;;;5042396;28;20192;-89
2020/12/13 03:10:24;;;;;;;0.50;0.50;;;2.30;99.90;;;;;;5041681;28;20620;-88
2020/12/13 03:12:51;;;;;;;0.50;0.50;;;2.20;99.90;;;;;;5042670;28;20201;-88
2020/12/13 03:15:20;;;;;;;0.50;0.50;;;2.30;99.90;;;;;;5045834;28;20210;-88
2020/12/13 03:17:49;;;;;;;0.50;0.50;;;2.20;99.90;;;;;;5045639;28;20207;-88
2020/12/13 03:20:15;;;;;;;0.47;0.47;;;2.20;99.90;;;;;;5045774;28;20283;-88
2020/12/13 03:22:41;;;;;;;0.50;0.50;;;2.30;99.90;;;;;;5044911;28;20214;-88
2020/12/13 03:25:07;;;;;;;0.50;0.50;;;2.20;99.90;;;;;;5044491;28;20192;-88
2020/12/13 03:27:34;;;;;;;0.50;0.50;;;2.10;99.90;;;;;;5045472;28;20189;-88
2020/12/13 03:30:01;;;;;;;0.50;0.50;;;2.50;99.90;;;;;;5044505;28;20733;-88
2020/12/13 03:32:28;;;;;;;0.50;0.50;;;2.20;99.90;;;;;;5044120;28;20200;-88
2020/12/13 03:34:58;;;;;;;0.50;0.50;;;2.30;99.90;;;;;;5045376;28;20211;-88
2020/12/13 03:37:24;;;;;;;0.50;0.50;;;2.20;99.90;;;;;;5044564;28;20193;-88
2020/12/13 03:39:51;;;;;;;0.50;0.50;;;2.20;99.90;;;;;;5043641;28;20209;-88
2020/12/13 03:42:17;;;;;;;0.50;0.50;;;2.30;99.90;;;;;;5044961;28;20197;-88
2020/12/13 03:44:43;;;;;;;0.50;0.50;;;2.30;99.90;;;;;;5044439;28;20205;-87
2020/12/13 03:47:09;;;;;;;0.50;0.50;;;2.20;99.90;;;;;;5042662;28;20200;-88
2020/12/13 03:49:36;;;;;;;0.50;0.50;;;2.20;99.90;;;;;;5043754;28;20230;-87
2020/12/13 03:52:02;;;;;;;0.50;0.50;;;2.20;99.90;;;;;;5042663;28;20308;-88
2020/12/13 03:54:31;;;;;;;0.50;0.50;;;2.20;99.90;;;;;;5042720;28;20196;-87
2020/12/13 03:56:57;;;;;;;0.50;0.50;;;2.10;99.90;;;;;;5044417;28;20655;-88
2020/12/13 03:59:24;;;;;;;0.50;0.50;;;2.10;99.90;;;;;;5044353;28;20264;-88
2020/12/13 04:01:50;;;;;;;0.50;0.50;;;2.10;99.90;;;;;;5043504;28;20212;-88
2020/12/13 04:04:16;;;;;;;0.50;0.50;;;2.10;99.90;;;;;;5044958;28;20207;-87
2020/12/13 04:06:43;;;;;;;0.50;0.50;;;2.10;99.90;;;;;;5044203;28;20295;-87
2020/12/13 04:09:09;;;;;;;0.50;0.50;;;2.10;99.90;;;;;;5043242;28;20193;-88
2020/12/13 04:11:36;;;;;;;0.50;0.50;;;2.10;99.90;;;;;;5043945;28;20228;-87
2020/12/13 04:14:02;;;;;;;0.50;0.50;;;2.10;99.90;;;;;;5042605;28;20205;-88
2020/12/13 04:16:31;;;;;;;0.50;0.50;;;2.10;99.90;;;;;;5042245;28;20196;-88
2020/12/13 04:18:57;;;;;;;0.50;0.50;;;2.20;99.90;;;;;;5043640;28;20211;-88
2020/12/13 04:21:25;;;;;;;0.50;0.50;;;2.20;99.90;;;;;;5043344;28;20208;-88
2020/12/13 04:23:53;;;;;;;0.50;0.50;;;2.20;99.90;;;;;;5042613;28;20235;-88
2020/12/13 04:26:19;;;;;;;0.50;0.50;;;2.20;99.90;;;;;;5052773;28;20326;-88
2020/12/13 04:28:45;;;;;;;0.50;0.50;;;2.20;99.90;;;;;;5053083;28;20200;-87
2020/12/13 04:31:11;;;;;;;0.50;0.50;;;2.20;99.90;;;;;;5052982;28;20216;-87
2020/12/13 04:33:38;;;;;;;0.50;0.50;;;2.20;99.90;;;;;;5052771;28;20192;-88
2020/12/13 04:36:07;;;;;;;0.50;0.50;;;2.10;99.90;;;;;;5052784;28;20200;-88
2020/12/13 04:38:34;;;;;;;0.50;0.50;;;2.20;99.90;;;;;;5052634;28;20228;-87
2020/12/13 04:41:01;;;;;;;0.50;0.50;;;2.20;99.90;;;;;;5052108;28;20694;-88
2020/12/13 04:43:27;;;;;;;0.50;0.50;;;2.20;99.90;;;;;;5052510;28;20207;-88
2020/12/13 04:45:54;;;;;;;0.50;0.50;;;2.20;99.90;;;;;;5052049;28;20204;-87
2020/12/13 04:48:24;;;;;;;0.50;0.50;;;2.20;99.90;;;;;;5052096;28;20220;-88
2020/12/13 04:50:51;;;;;;;0.50;0.50;;;2.20;99.90;;;;;;5051943;28;20580;-88
2020/12/13 04:53:19;;;;;;;0.50;0.50;;;2.10;99.90;;;;;;5052325;28;20207;-88
2020/12/13 04:55:56;;;;;;;0.50;0.50;;;2.20;99.90;;;;;;5053187;28;20201;-87
2020/12/13 04:58:25;;;;;;;0.50;0.50;;;2.20;99.90;;;;;;5050497;28;20204;-87
2020/12/13 05:00:55;;;;;;;0.50;0.50;;;2.20;99.90;;;;;;5052962;28;20220;-88
2020/12/13 05:03:22;;;;;;;0.50;0.50;;;2.20;99.90;;;;;;5052580;28;20204;-88
2020/12/13 05:05:51;;;;;;;0.50;0.50;;;2.20;99.90;;;;;;5052844;28;20196;-87
2020/12/13 05:08:20;;;;;;;0.50;0.50;;;2.20;99.90;;;;;;5052785;28;20200;-88
2020/12/13 05:10:47;;;;;;;0.50;0.50;;;2.20;99.90;;;;;;5052284;28;20215;-88
2020/12/13 05:13:13;;;;;;;0.50;0.50;;;2.20;99.90;;;;;;5051525;28;20208;-88
2020/12/13 05:15:40;;;;;;;0.50;0.50;;;2.20;99.90;;;;;;5051826;28;20200;-89
2020/12/13 05:18:06;;;;;;;0.50;0.50;;;2.20;99.90;;;;;;5051497;28;20200;-88
2020/12/13 05:20:33;;;;;;;0.50;0.50;;;2.10;99.90;;;;;;5051917;28;20598;-89
2020/12/13 05:23:01;;;;;;;0.50;0.50;;;2.20;99.90;;;;;;5051473;28;20200;-88
2020/12/13 05:25:32;;;;;;;0.50;0.50;;;2.20;99.90;;;;;;5051916;28;20200;-88
2020/12/13 05:28:00;;;;;;;0.50;0.50;;;2.30;99.90;;;;;;5052311;28;20197;-88
2020/12/13 05:30:29;;;;;;;0.50;0.50;;;2.20;99.90;;;;;;5052572;28;20205;-88
2020/12/13 05:33:03;;;;;;;0.50;0.50;;;2.30;99.90;;;;;;5052441;28;20200;-89
2020/12/13 05:35:29;;;;;;;0.50;0.50;;;2.20;99.90;;;;;;5049293;28;20683;-89
2020/12/13 05:37:57;;;;;;;0.50;0.50;;;2.20;99.90;;;;;;5051988;28;20216;-88
2020/12/13 05:40:24;;;;;;;0.50;0.50;;;2.20;99.90;;;;;;5049731;28;20295;-88
2020/12/13 05:43:01;;;;;;;0.50;0.50;;;2.10;99.90;;;;;;5052088;28;20207;-88
2020/12/13 05:45:48;;;;;;;0.50;0.50;;;2.10;99.90;;;;;;5050444;28;20212;-88
2020/12/13 05:48:30;;;;;;;0.50;0.50;;;2.20;99.90;;;;;;5050951;28;20235;-89
2020/12/13 05:51:07;;;;;;;0.50;0.50;;;2.20;99.90;;;;;;5051561;28;20270;-88
2020/12/13 05:53:36;;;;;;;0.50;0.50;;;2.20;99.90;;;;;;5051064;28;20655;-87
2020/12/13 05:56:04;;;;;;;0.50;0.50;;;2.10;99.90;;;;;;5052013;28;20218;-88
2020/12/13 05:58:31;;;;;;;0.50;0.50;;;2.20;99.90;;;;;;5052006;28;20196;-88
2020/12/13 06:00:58;;;;;;;0.50;0.50;;;2.20;99.90;;;;;;5051780;28;20733;-88
2020/12/13 06:03:32;;;;;;;0.50;0.50;;;2.20;99.90;;;;;;5049024;28;20196;-88
2020/12/13 06:06:06;;;;;;;0.50;0.50;;;2.20;99.90;;;;;;5051652;28;20269;-88
2020/12/13 06:09:06;;;;;;;0.50;0.50;;;2.20;99.90;;;;;;5051935;28;20202;-87
2020/12/13 06:11:36;;;;;;;0.50;0.50;;;2.20;99.90;;;;;;5047739;28;20219;-88
2020/12/13 06:14:11;;;;;;;0.50;0.50;;;2.20;99.90;;;;;;5051346;28;20204;-87
2020/12/13 06:16:37;;;;;;;0.50;0.50;;;2.20;99.90;;;;;;5051498;28;20196;-87
2020/12/13 06:19:05;;;;;;;0.50;0.50;;;2.20;99.90;;;;;;5048365;28;20204;-88
2020/12/13 06:21:33;;;;;;;0.50;0.50;;;2.30;99.90;;;;;;5051471;28;20188;-87
2020/12/13 06:24:00;;;;;;;0.50;0.50;;;2.30;99.90;;;;;;5051476;28;20192;-88
2020/12/13 06:26:27;;;;;;;0.50;0.50;;;2.20;99.90;;;;;;5051267;28;20201;-88
2020/12/13 06:28:54;;;;;;;0.50;0.50;;;2.30;99.90;;;;;;5051181;28;20200;-88
2020/12/13 06:31:20;;;;;;;0.50;0.50;;;2.20;99.90;;;;;;5051488;28;20216;-88
2020/12/13 06:33:49;;;;;;;0.50;0.50;;;2.20;99.90;;;;;;5051379;28;20192;-88
2020/12/13 06:36:23;;;;;;;0.50;0.50;;;2.20;99.90;;;;;;5051207;28;20204;-87
2020/12/13 06:38:51;;;;;;;0.50;0.50;;;2.20;99.90;;;;;;5049370;28;20197;-87
2020/12/13 06:41:21;;;;;;;0.50;0.50;;;2.20;99.90;;;;;;5051230;28;20215;-87
2020/12/13 06:43:56;;;;;;;0.50;0.50;;;2.20;99.90;;;;;;5049276;28;20196;-87
2020/12/13 06:46:27;;;;;;;0.50;0.50;;;2.20;99.90;;;;;;5051591;28;20200;-87
2020/12/13 06:48:54;;;;;;;0.50;0.50;;;2.20;99.90;;;;;;5055207;28;20239;-88
2020/12/13 06:51:27;;;;;;;0.50;0.50;;;2.30;99.90;;;;;;5055035;28;20220;-87
2020/12/13 06:53:55;;;;;;;0.50;0.50;;;2.20;99.90;;;;;;5055035;28;20247;-88
2020/12/13 06:56:21;;;;;;;0.50;0.50;;;2.20;99.90;;;;;;5055055;28;20203;-87
2020/12/13 06:58:55;;;;;;;0.50;0.50;;;2.20;99.90;;;;;;5055475;28;20560;-88
2020/12/13 07:01:23;;;;;;;0.50;0.50;;;2.20;99.90;;;;;;5055102;28;20258;-87
2020/12/13 07:03:50;;;;;;;0.50;0.50;;;2.20;99.90;;;;;;5055163;28;20200;-88
2020/12/13 07:06:22;;;;;;;0.50;0.50;;;2.20;99.90;;;;;;5054836;28;20559;-87
2020/12/13 07:08:56;;;;;;;0.50;0.50;;;2.30;99.90;;;;;;5052886;28;20193;-87
2020/12/13 07:11:25;;;;;;;0.50;0.50;;;2.20;99.90;;;;;;5055035;28;20306;-87
2020/12/13 07:13:52;;;;;;;0.50;0.50;;;2.20;99.90;;;;;;5055350;28;20764;-88
2020/12/13 07:16:30;;;;;;;0.50;0.50;;;2.30;99.90;;;;;;5054489;28;20200;-87
2020/12/13 07:19:05;;;;;;;0.50;0.50;;;2.30;99.90;;;;;;5054206;28;20246;-88
2020/12/13 07:21:31;;;;;;;0.50;0.50;;;2.30;99.90;;;;;;5053425;28;20215;-88
2020/12/13 07:24:00;;;;;;;0.50;0.50;;;2.30;99.90;;;;;;5054840;28;20201;-88
2020/12/13 07:26:28;;;;;;;0.50;0.50;;;2.20;99.90;;;;;;5052597;28;20203;-88
2020/12/13 07:28:55;;;;;;;0.50;0.50;;;2.20;99.90;;;;;;5055054;28;20200;-89
2020/12/13 07:31:23;;;;;;;0.50;0.50;;;2.20;99.90;;;;;;5054365;28;20220;-88
2020/12/13 07:33:49;;;;;;;0.50;0.50;;;2.20;99.90;;;;;;5055407;28;20204;-88
2020/12/13 07:36:15;;;;;;;0.50;0.50;;;2.30;99.90;;;;;;5055088;28;20200;-89
2020/12/13 07:38:42;;;;;;;0.50;0.50;;;2.20;99.90;;;;;;5054734;28;20197;-88
2020/12/13 07:41:17;;;;;;;0.50;0.50;;;2.20;99.90;;;;;;5054502;28;20197;-88
2020/12/13 07:43:54;;;;;;;0.50;0.50;;;2.20;99.90;;;;;;5054679;28;20196;-87
2020/12/13 07:46:21;;;;;;;0.50;0.50;;;2.30;99.90;;;;;;5053951;28;20204;-88
2020/12/13 07:48:47;;;;;;;0.50;0.50;;;2.30;99.90;;;;;;5054310;28;20263;-87
2020/12/13 07:51:14;;;;;;;0.50;0.50;;;2.30;99.90;;;;;;5054215;28;20617;-88
2020/12/13 07:53:40;;;;;;;0.50;0.50;;;2.30;99.90;;;;;;5054286;28;20205;-87
2020/12/13 07:56:06;;;;;;;0.50;0.50;;;2.30;99.90;;;;;;5054372;28;20203;-87
2020/12/13 07:58:35;;;;;;;0.40;0.40;;;2.30;99.90;;;;;;5053292;28;20204;-88
2020/12/13 08:01:10;;;;;;;0.50;0.50;;;2.30;99.90;;;;;;5053925;28;20200;-87
2020/12/13 08:03:48;;;;;;;0.50;0.50;;;2.30;99.90;;;;;;5054102;28;20632;-88
2020/12/13 08:06:15;;;;;;;0.50;0.50;;;2.30;99.90;;;;;;5052746;28;20196;-88
2020/12/13 08:08:42;;;;;;;0.50;0.50;;;2.30;99.90;;;;;;5054353;28;20231;-88
2020/12/13 08:11:11;;;;;;;0.50;0.50;;;2.30;99.90;;;;;;5054100;28;20885;-88
2020/12/13 08:13:47;;;;;;;0.50;0.50;;;2.30;99.90;;;;;;5054365;28;20381;-88
2020/12/13 08:16:17;;;;;;;0.50;0.50;;;3.30;99.90;;;;;;5052766;28;20271;-88
2020/12/13 08:18:47;;;;;;;0.50;0.50;;;2.30;99.90;;;;;;5054213;28;20204;-88
2020/12/13 08:21:18;;;;;;;0.50;0.50;;;2.30;99.90;;;;;;5054084;28;20223;-89
2020/12/13 08:23:47;;;;;;;0.50;0.50;;;2.40;99.90;;;;;;5053960;28;20201;-88
2020/12/13 08:26:14;;;;;;;0.50;0.50;;;2.40;99.90;;;;;;5054069;28;20205;-89
2020/12/13 08:28:45;;;;;;;0.50;0.50;;;2.40;99.90;;;;;;5053992;28;20292;-89
2020/12/13 08:31:14;;;;;;;0.50;0.50;;;2.10;99.90;;;;;;5054079;28;20220;-89
2020/12/13 08:33:41;;;;;;;0.50;0.50;;;2.40;99.90;;;;;;5047959;28;20292;-89
2020/12/13 08:36:18;;;;;;;0.50;0.50;;;2.30;99.90;;;;;;5044884;28;20200;-88
2020/12/13 08:38:44;;;;;;;0.50;0.50;;;2.40;99.90;;;;;;5044394;28;20223;-88
2020/12/13 08:41:30;;;;;;;0.50;0.50;;;3.10;99.90;;;;;;5046176;28;20195;-88
2020/12/13 08:43:59;;;;;;;0.50;0.50;;;2.50;99.90;;;;;;5039317;28;20204;-87
2020/12/13 08:46:38;;;;;;;0.50;0.50;;;2.40;99.90;;;;;;5033739;28;20204;-86
2020/12/13 08:49:04;;;;;;;0.50;0.50;;;2.50;99.90;;;;;;5034725;28;20304;-89
2020/12/13 08:51:31;;;;;;;0.50;0.50;;;2.40;99.90;;;;;;5043008;28;20224;-88
2020/12/13 08:53:59;;;;;;;0.50;0.50;;;2.50;99.90;;;;;;5053957;28;20670;-88
2020/12/13 08:56:36;;;;;;;0.50;0.50;;;2.50;99.90;;;;;;5053735;28;20208;-88
2020/12/13 08:59:07;;;;;;;0.50;0.50;;;2.60;99.90;;;;;;5052023;28;20207;-89
2020/12/13 09:01:38;;;;;;;0.50;0.50;;;2.60;99.90;;;;;;5050274;28;20199;-88
2020/12/13 09:04:23;;;;;;;0.50;0.50;;;2.60;99.90;;;;;;5050628;28;20197;-88
2020/12/13 09:06:54;;;;;;;0.50;0.50;;;2.60;99.90;;;;;;5051659;28;20204;-87
2020/12/13 09:09:21;;;;;;;0.50;0.50;;;2.60;99.90;;;;;;5052804;28;20763;-87
2020/12/13 09:11:47;;;;;;;0.50;0.50;;;2.60;99.90;;;;;;5052822;28;20254;-88
2020/12/13 09:14:28;;;;;;;0.50;0.50;;;2.60;99.90;;;;;;5052742;28;20196;-87
2020/12/13 09:16:55;;;;;;;0.50;0.50;;;2.60;99.90;;;;;;5051940;28;20203;-87
2020/12/13 09:19:21;;;;;;;0.50;0.50;;;2.60;99.90;;;;;;5052460;28;20204;-86
2020/12/13 09:21:56;;;;;;;0.50;0.50;;;2.70;99.90;;;;;;5052677;28;20196;-87
2020/12/13 09:24:45;;;;;;;0.50;0.50;;;2.70;99.90;;;;;;5045045;28;20196;-89
2020/12/13 09:27:23;;;;;;;0.50;0.50;;;2.70;99.90;;;;;;5014404;28;20863;-87
2020/12/13 09:29:51;;;;;;;0.50;0.50;;;2.70;99.90;;;;;;5042490;28;20208;-89
2020/12/13 09:32:20;;;;;;;0.50;0.50;;;2.80;99.90;;;;;;5044559;28;20231;-87
2020/12/13 09:38:09;;;;;;;0.50;0.50;;;2.70;99.90;;;;;;5001898;28;20538;-88
2020/12/13 09:40:38;;;;;;;0.50;0.50;;;2.80;99.90;;;;;;5041756;28;20207;-87
2020/12/13 09:43:08;;;;;;;0.50;0.50;;;2.70;99.90;;;;;;5043958;28;20195;-87
2020/12/13 09:45:37;;;;;;;0.50;0.50;;;2.80;99.90;;;;;;5039052;28;20208;-87
2020/12/13 09:48:04;;;;;;;0.50;0.50;;;2.80;99.90;;;;;;5032566;28;20656;-88
2020/12/13 09:50:30;;;;;;;0.50;0.50;;;2.80;99.90;;;;;;5036799;28;20212;-88
2020/12/13 09:52:56;;;;;;;0.50;0.50;;;2.80;99.90;;;;;;5030940;28;20459;-88
2020/12/13 09:55:23;;;;;;;0.50;0.50;;;3.20;99.90;;;;;;5030753;28;20447;-88
2020/12/13 09:57:50;;;;;;;0.50;0.50;;;2.90;99.90;;;;;;5031292;28;20208;-87
2020/12/13 10:00:19;;;;;;;0.50;0.50;;;2.90;99.90;;;;;;5030894;28;20215;-87
2020/12/13 10:02:46;;;;;;;0.50;0.50;;;2.80;99.90;;;;;;5031785;28;20255;-88
2020/12/13 10:05:20;;;;;;;0.50;0.50;;;2.80;99.90;;;;;;5031338;28;20213;-88
2020/12/13 10:10:31;;;;;;;0.50;0.50;;;2.90;99.90;;;;;;5031864;28;20327;-88
2020/12/13 10:12:57;;;;;;;0.50;0.50;;;2.90;99.90;;;;;;5032179;28;20596;-88
2020/12/13 10:15:23;;;;;;;0.50;0.50;;;2.90;99.90;;;;;;5032142;28;20208;-87
2020/12/13 10:17:50;;;;;;;0.50;0.50;;;3.30;99.90;;;;;;5032060;28;20212;-88
2020/12/13 10:20:16;;;;;;;0.50;0.50;;;2.90;99.90;;;;;;5031674;28;20208;-88
2020/12/13 10:22:45;;;;;;;0.50;0.50;;;2.90;99.90;;;;;;5030630;28;20197;-88
2020/12/13 10:25:12;;;;;;;0.50;0.50;;;2.90;99.90;;;;;;5029772;28;20205;-87
2020/12/13 10:27:38;;;;;;;0.50;0.50;;;2.90;99.90;;;;;;5030617;28;20216;-88
2020/12/13 10:30:05;;;;;;;0.50;0.50;;;2.90;99.90;;;;;;5030925;28;20201;-88
2020/12/13 10:32:31;;;;;;;0.50;0.50;;;3.00;99.90;;;;;;5030379;28;20233;-88
2020/12/13 10:34:58;;;;;;;0.50;0.50;;;3.00;99.90;;;;;;5031024;28;20205;-88
2020/12/13 10:37:24;;;;;;;0.50;0.50;;;3.00;99.90;;;;;;5030807;28;20217;-88
2020/12/13 10:39:50;;;;;;;0.50;0.50;;;3.00;99.90;;;;;;5032836;28;20580;-87
2020/12/13 10:42:24;;;;;;;0.50;0.50;;;3.00;99.90;;;;;;5041744;28;20204;-88
2020/12/13 10:44:56;;;;;;;0.50;0.50;;;3.00;99.90;;;;;;5032135;28;20192;-87
2020/12/13 10:47:24;;;;;;;0.50;0.50;;;3.00;99.90;;;;;;5033071;28;20193;-88
2020/12/13 10:49:51;;;;;;;0.50;0.50;;;3.50;99.90;;;;;;5043036;28;20341;-88
2020/12/13 10:52:21;;;;;;;0.50;0.50;;;4.00;99.90;;;;;;5035461;28;20228;-88
2020/12/13 10:54:47;;;;;;;0.50;0.50;;;3.10;99.90;;;;;;5028578;28;20288;-88
2020/12/13 10:57:15;;;;;;;0.50;0.50;;;3.10;99.90;;;;;;5031186;28;20236;-87
2020/12/13 10:59:41;;;;;;;0.50;0.50;;;3.10;99.90;;;;;;5031102;28;20211;-87
2020/12/13 11:02:07;;;;;;;0.50;0.50;;;3.10;99.90;;;;;;5032138;28;20208;-88
2020/12/13 11:04:35;;;;;;;0.50;0.50;;;3.10;99.90;;;;;;5032100;28;20193;-87
2020/12/13 11:07:02;;;;;;;0.50;0.50;;;2.70;99.90;;;;;;5030544;28;20565;-89
2020/12/13 11:09:29;;;;;;;0.50;0.50;;;3.10;99.90;;;;;;5042660;28;20219;-88
2020/12/13 11:11:55;;;;;;;0.50;0.50;;;3.20;99.90;;;;;;5035161;28;20238;-88
2020/12/13 11:14:22;;;;;;;0.50;0.50;;;3.90;99.90;;;;;;5030915;28;20205;-88
2020/12/13 11:16:50;;;;;;;0.50;0.50;;;3.20;99.90;;;;;;5031407;28;20209;-87
2020/12/13 11:19:16;;;;;;;0.50;0.50;;;3.20;99.90;;;;;;5031427;28;20201;-87
2020/12/13 11:21:46;;;;;;;0.50;0.50;;;3.20;99.90;;;;;;5031266;28;20204;-87
2020/12/13 11:24:12;;;;;;;0.50;0.50;;;3.20;99.90;;;;;;5031019;28;20216;-88
2020/12/13 11:26:47;;;;;;;0.50;0.50;;;3.30;99.90;;;;;;5030819;28;20201;-88
2020/12/13 11:29:13;;;;;;;0.50;0.50;;;3.20;99.90;;;;;;5032833;28;20762;-88
2020/12/13 11:31:42;;;;;;;0.50;0.50;;;3.20;99.90;;;;;;5043417;28;20235;-88
2020/12/13 11:34:09;;;;;;;0.50;0.50;;;3.20;99.90;;;;;;5037832;28;20213;-89
2020/12/13 11:37:12;;;;;;;0.50;0.50;;;3.20;99.90;;;;;;5035143;28;20211;-89
2020/12/13 11:43:21;;;;;;;0.50;0.50;;;3.20;99.90;;;;;;5029167;28;20224;-88
2020/12/13 11:48:55;;;;;;;0.50;0.50;;;3.30;99.90;;;;;;5043649;28;20227;-88
2020/12/13 11:51:21;;;;;;;0.50;0.50;;;3.30;99.90;;;;;;5046356;28;20228;-88
2020/12/13 11:53:49;;;;;;;0.50;0.50;;;3.30;99.90;;;;;;5046548;28;20212;-88
2020/12/13 11:56:20;;;;;;;0.50;0.50;;;3.30;99.90;;;;;;5046867;28;20205;-89
2020/12/13 11:58:47;;;;;;;0.50;0.50;;;3.30;99.90;;;;;;5042485;28;20734;-89
2020/12/13 12:01:14;;;;;;;0.50;0.50;;;3.30;99.90;;;;;;5042382;28;20212;-88
2020/12/13 12:03:40;;;;;;;0.50;0.50;;;3.40;99.90;;;;;;5051233;28;20200;-89
2020/12/13 12:06:07;;;;;;;0.50;0.50;;;3.40;99.90;;;;;;5048503;28;20286;-88
2020/12/13 12:08:34;;;;;;;0.50;0.50;;;3.40;99.90;;;;;;5045447;28;20209;-88
2020/12/13 12:11:00;;;;;;;0.50;0.50;;;3.40;99.90;;;;;;5046967;28;20208;-89
2020/12/13 12:13:26;;;;;;;0.50;0.50;;;3.40;99.90;;;;;;5046859;28;20681;-88
2020/12/13 12:15:53;;;;;;;0.50;0.50;;;3.40;99.90;;;;;;5045344;28;20208;-87
2020/12/13 12:18:20;;;;;;;0.50;0.50;;;3.40;99.90;;;;;;5044804;28;20201;-89
2020/12/13 12:20:46;;;;;;;0.50;0.50;;;3.40;99.90;;;;;;5044305;28;20208;-89
2020/12/13 12:23:18;;;;;;;0.50;0.50;;;3.40;99.90;;;;;;5043325;28;20200;-89
2020/12/13 12:25:49;;;;;;;0.50;0.50;;;3.40;99.90;;;;;;5041699;28;20200;-88
2020/12/13 12:28:17;;;;;;;0.50;0.50;;;3.50;99.90;;;;;;5046500;28;20676;-89
2020/12/13 12:30:45;;;;;;;0.50;0.50;;;3.40;99.90;;;;;;5042081;28;20259;-89
2020/12/13 12:33:14;;;;;;;0.50;0.50;;;3.40;99.90;;;;;;5043291;28;20228;-89
2020/12/13 12:35:44;;;;;;;0.50;0.50;;;3.50;99.90;;;;;;5033674;28;20213;-88
2020/12/13 12:38:12;;;;;;;0.50;0.50;;;3.50;99.90;;;;;;5033540;28;20213;-88
2020/12/13 12:40:38;;;;;;;0.50;0.50;;;4.30;99.90;;;;;;5038472;28;20217;-89
2020/12/13 12:43:05;;;;;;;0.50;0.50;;;3.50;99.90;;;;;;5037233;28;20660;-89
2020/12/13 12:45:31;;;;;;;0.50;0.50;;;3.50;99.90;;;;;;5036678;28;20209;-88
2020/12/13 12:47:57;;;;;;;0.50;0.50;;;3.50;99.90;;;;;;5034111;28;20553;-88
2020/12/13 12:50:25;;;;;;;0.40;0.40;;;3.60;99.90;;;;;;5037983;28;20263;-88
2020/12/13 12:52:52;;;;;;;0.50;0.50;;;3.60;99.90;;;;;;5048366;28;20230;-89
2020/12/13 12:55:18;;;;;;;0.50;0.50;;;3.60;99.90;;;;;;5033099;28;20656;-89
2020/12/13 13:00:41;;;;;;;0.50;0.50;;;3.60;99.90;;;;;;5045717;28;20204;-88
2020/12/13 13:03:07;;;;;;;0.50;0.50;;;3.50;99.90;;;;;;5049643;28;20208;-88
2020/12/13 13:05:40;;;;;;;0.50;0.50;;;3.50;99.90;;;;;;5036066;28;20212;-88
2020/12/13 13:08:15;;;;;;;0.50;0.50;;;3.60;99.90;;;;;;5034027;28;20204;-88
2020/12/13 13:10:42;;;;;;;0.50;0.50;;;3.50;99.90;;;;;;5032774;28;20243;-88
2020/12/13 13:13:08;;;;;;;0.50;0.50;;;3.60;99.90;;;;;;5033215;28;20224;-88
2020/12/13 13:15:45;;;;;;;0.50;0.50;;;3.60;99.90;;;;;;5032838;28;20573;-88
2020/12/13 13:18:12;;;;;;;0.50;0.50;;;3.60;99.90;;;;;;5032037;28;20675;-88
2020/12/13 13:20:41;;;;;;;0.50;0.50;;;3.60;99.90;;;;;;5032948;28;20702;-88
2020/12/13 13:23:07;;;;;;;0.50;0.50;;;3.60;99.90;;;;;;5038874;28;20200;-88
2020/12/13 13:25:36;;;;;;;0.50;0.50;;;3.60;99.90;;;;;;5043938;28;20200;-87